Time;durP1;ratioP1;P1;durP2;ratioP2;P2;SDS_P1;SDS_P2;PMS_P1;PMS_P2;Temp;Humidity;BMP_temperature;BMP_pressure;BME280_temperature;BME280_humidity;BME280_pressure;Samples;Min_cycle;Max_cycle;Signal;HPM_P1;HPM_P2
2023/01/24 00:01:55;;;;;;;39.28;3.10;;;17.60;30.60;;;;;;5111773;27;20419;-66
2023/01/24 00:04:22;;;;;;;29.20;3.08;;;17.50;31.00;;;;;;5113036;27;20128;-71
2023/01/24 00:06:48;;;;;;;28.50;3.10;;;17.40;30.90;;;;;;5111018;27;20418;-65
2023/01/24 00:09:15;;;;;;;34.45;3.33;;;17.30;31.20;;;;;;5113833;27;20056;-66
2023/01/24 00:11:41;;;;;;;30.42;3.33;;;17.20;30.60;;;;;;5095848;27;20129;-65
2023/01/24 00:14:07;;;;;;;37.75;4.57;;;17.30;31.10;;;;;;5107946;28;20062;-67
2023/01/24 00:16:34;;;;;;;33.05;3.15;;;17.40;31.40;;;;;;5108369;27;20505;-67
2023/01/24 00:19:00;;;;;;;50.17;3.92;;;17.30;31.30;;;;;;5109509;27;20518;-67
2023/01/24 00:21:27;;;;;;;63.28;3.70;;;17.20;31.80;;;;;;5108962;27;20085;-68
2023/01/24 00:23:54;;;;;;;37.72;2.92;;;17.10;32.30;;;;;;5108272;27;20071;-66
2023/01/24 00:26:23;;;;;;;31.40;3.03;;;17.10;32.20;;;;;;5108822;27;20135;-66
2023/01/24 00:28:49;;;;;;;35.08;3.13;;;17.00;31.90;;;;;;5107085;28;20547;-66
2023/01/24 00:31:16;;;;;;;24.15;3.08;;;17.00;31.80;;;;;;5109451;28;20501;-65
2023/01/24 00:33:43;;;;;;;24.40;3.03;;;16.90;32.20;;;;;;5109965;27;20110;-65
2023/01/24 00:36:10;;;;;;;33.20;3.10;;;16.80;32.00;;;;;;5115209;27;20059;-64
2023/01/24 00:38:37;;;;;;;36.83;3.58;;;16.70;32.50;;;;;;5116573;27;20158;-65
2023/01/24 00:41:03;;;;;;;43.35;13.75;;;16.70;32.50;;;;;;5118964;27;20174;-67
2023/01/24 00:43:30;;;;;;;33.30;3.45;;;16.60;32.50;;;;;;5116627;27;20083;-65
2023/01/24 00:45:57;;;;;;;25.30;2.65;;;16.60;32.70;;;;;;5109760;27;20061;-65
2023/01/24 00:48:23;;;;;;;33.75;2.97;;;16.50;32.80;;;;;;5108551;28;20087;-65
2023/01/24 00:50:50;;;;;;;27.23;3.00;;;16.40;32.90;;;;;;5106936;28;20069;-63
2023/01/24 00:53:17;;;;;;;31.42;2.88;;;16.40;33.20;;;;;;5110056;28;20511;-66
2023/01/24 00:55:45;;;;;;;36.42;3.63;;;16.30;33.20;;;;;;5108120;28;20091;-65
2023/01/24 00:58:12;;;;;;;27.02;3.17;;;16.20;33.20;;;;;;5110389;28;20138;-65
2023/01/24 01:00:39;;;;;;;50.40;4.13;;;16.10;33.70;;;;;;5103206;27;20150;-65
2023/01/24 01:03:09;;;;;;;37.75;3.58;;;16.00;34.00;;;;;;5109749;28;20072;-66
2023/01/24 01:05:36;;;;;;;28.17;3.08;;;16.00;33.40;;;;;;5110185;28;20088;-65
2023/01/24 01:08:02;;;;;;;35.53;3.70;;;15.90;33.70;;;;;;5115469;27;20074;-67
2023/01/24 01:10:29;;;;;;;39.90;4.28;;;15.80;33.90;;;;;;5108723;28;20160;-64
2023/01/24 01:12:56;;;;;;;53.95;13.98;;;15.80;34.10;;;;;;5109360;27;20061;-65
2023/01/24 01:15:22;;;;;;;41.83;10.02;;;15.70;34.60;;;;;;5112301;27;20105;-67
2023/01/24 01:17:48;;;;;;;;;;;15.60;34.60;;;;;;5108999;28;20421;-69
2023/01/24 01:20:15;;;;;;;50.08;7.38;;;15.60;35.10;;;;;;5116288;27;19965;-65
2023/01/24 01:22:41;;;;;;;33.22;3.55;;;15.50;35.60;;;;;;5109806;27;20086;-65
2023/01/24 01:25:08;;;;;;;29.15;3.20;;;15.40;35.60;;;;;;5110062;27;20571;-64
2023/01/24 01:27:35;;;;;;;45.65;4.47;;;15.30;36.00;;;;;;5119947;27;20062;-64
2023/01/24 01:30:01;;;;;;;;;;;15.30;36.00;;;;;;5111749;27;20246;-65
2023/01/24 01:32:27;;;;;;;25.40;3.35;;;15.20;36.20;;;;;;5112141;27;20418;-67
2023/01/24 01:34:53;;;;;;;;;;;15.10;36.70;;;;;;5110258;27;20532;-65
2023/01/24 01:37:19;;;;;;;31.85;3.67;;;15.10;36.80;;;;;;5089303;28;19984;-66
2023/01/24 01:39:45;;;;;;;;;;;15.00;37.10;;;;;;5116848;27;20072;-64
2023/01/24 01:42:14;;;;;;;29.40;3.65;;;15.00;37.40;;;;;;5111450;27;20357;-65
2023/01/24 01:44:43;;;;;;;28.58;3.55;;;14.90;37.90;;;;;;5111271;27;20070;-65
2023/01/24 01:47:37;;;;;;;31.23;3.38;;;14.80;38.40;;;;;;5111914;28;20077;-67
2023/01/24 01:50:03;;;;;;;28.63;3.38;;;14.80;38.40;;;;;;5111303;27;20213;-65
2023/01/24 01:52:32;;;;;;;;;;;14.70;38.40;;;;;;5092379;28;20067;-65
2023/01/24 01:55:18;;;;;;;28.02;3.42;;;14.60;38.10;;;;;;5110544;27;19955;-66
2023/01/24 01:57:47;;;;;;;39.58;4.50;;;14.60;38.30;;;;;;5109655;28;20120;-67
2023/01/24 02:00:17;;;;;;;38.50;5.43;;;14.50;38.10;;;;;;5114891;27;20131;-66
2023/01/24 02:02:49;;;;;;;34.72;3.70;;;14.50;38.70;;;;;;5114798;27;20487;-64
2023/01/24 02:05:20;;;;;;;29.67;3.63;;;14.50;39.50;;;;;;5112562;27;20067;-66
2023/01/24 02:08:03;;;;;;;45.53;4.32;;;14.40;38.90;;;;;;5114359;27;20146;-68
2023/01/24 02:11:37;;;;;;;35.90;4.30;;;14.40;38.90;;;;;;5110201;27;20073;-64
2023/01/24 02:13:16;;;;;;;51.73;5.80;;;14.40;39.00;;;;;;5117008;27;20080;-64
2023/01/24 02:16:03;;;;;;;;;;;14.30;39.10;;;;;;5111889;28;20152;-65
2023/01/24 02:18:38;;;;;;;38.80;5.63;;;14.20;40.10;;;;;;5107693;28;19983;-66
2023/01/24 02:21:08;;;;;;;37.08;4.93;;;14.20;39.80;;;;;;5114027;28;20094;-67
2023/01/24 02:23:52;;;;;;;33.97;4.80;;;14.10;40.10;;;;;;5112830;28;20084;-64
2023/01/24 02:26:24;;;;;;;35.83;5.32;;;14.10;39.90;;;;;;5091435;28;20441;-66
2023/01/24 02:29:11;;;;;;;42.63;4.97;;;14.10;40.00;;;;;;5077958;28;20076;-67
2023/01/24 02:31:58;;;;;;;34.67;4.90;;;14.10;40.50;;;;;;5111956;28;20093;-66
2023/01/24 02:34:25;;;;;;;;;;;14.00;40.90;;;;;;5074643;28;20068;-68
2023/01/24 02:36:58;;;;;;;38.80;5.55;;;13.90;41.00;;;;;;5091921;28;19952;-67
2023/01/24 02:39:32;;;;;;;50.35;6.75;;;13.90;41.30;;;;;;5112435;28;20522;-67
2023/01/24 02:42:08;;;;;;;43.13;6.03;;;13.90;41.20;;;;;;5111432;28;20084;-67
2023/01/24 02:44:47;;;;;;;40.40;6.20;;;13.80;41.40;;;;;;5111787;28;20057;-67
2023/01/24 02:47:13;;;;;;;45.53;5.78;;;13.70;41.30;;;;;;5113217;28;20533;-67
2023/01/24 02:49:40;;;;;;;44.50;6.78;;;13.70;41.70;;;;;;5112827;28;20079;-65
2023/01/24 02:54:52;;;;;;;39.25;6.38;;;13.60;41.60;;;;;;5107814;28;20366;-66
2023/01/24 03:00:06;;;;;;;46.10;6.40;;;13.50;41.80;;;;;;5111860;28;20161;-67
2023/01/24 03:02:32;;;;;;;39.63;6.60;;;13.40;41.80;;;;;;5111025;28;20112;-67
2023/01/24 03:04:59;;;;;;;31.23;5.28;;;13.40;41.70;;;;;;5115810;28;20167;-67
2023/01/24 03:07:25;;;;;;;;;;;13.40;41.90;;;;;;5116967;27;20187;-66
2023/01/24 03:09:51;;;;;;;28.45;5.53;;;13.40;41.70;;;;;;5125096;27;20314;-67
2023/01/24 03:34:33;;;;;;;30.88;3.58;;;13.30;41.10;;;;;;5116067;27;20153;-65
2023/01/24 03:37:00;;;;;;;34.60;4.47;;;13.30;41.00;;;;;;5113641;27;20152;-67
2023/01/24 03:42:11;;;;;;;46.15;3.80;;;13.30;41.70;;;;;;5114099;27;20595;-64
2023/01/24 03:44:37;;;;;;;;;;;13.20;42.00;;;;;;5116295;27;20078;-64
2023/01/24 03:47:04;;;;;;;26.17;2.60;;;13.10;41.60;;;;;;5116274;27;19975;-67
2023/01/24 03:52:30;;;;;;;37.92;5.35;;;13.10;41.90;;;;;;5111286;27;19972;-64
2023/01/24 03:54:57;;;;;;;41.47;6.60;;;13.10;41.90;;;;;;5117992;27;20107;-65
2023/01/24 03:57:24;;;;;;;44.55;7.63;;;13.10;41.90;;;;;;5114943;27;20140;-65
2023/01/24 03:59:51;;;;;;;43.28;6.22;;;13.10;42.20;;;;;;5114461;27;20471;-66
2023/01/24 04:02:18;;;;;;;30.92;6.63;;;13.10;42.50;;;;;;5093262;27;20093;-66
2023/01/24 04:07:30;;;;;;;31.60;6.15;;;13.00;43.30;;;;;;5113957;27;20572;-68
2023/01/24 04:09:58;;;;;;;33.22;7.20;;;12.90;43.40;;;;;;5116418;27;20446;-68
2023/01/24 04:12:25;;;;;;;30.75;5.80;;;12.80;43.40;;;;;;5114136;27;20122;-67
2023/01/24 04:14:52;;;;;;;36.88;6.07;;;12.90;43.60;;;;;;5113712;27;20071;-66
2023/01/24 04:17:18;;;;;;;37.53;5.70;;;12.80;43.60;;;;;;5115547;27;20150;-66
2023/01/24 04:19:44;;;;;;;;;;;12.70;43.50;;;;;;5114246;27;20164;-66
2023/01/24 04:22:11;;;;;;;34.97;7.53;;;12.70;43.30;;;;;;5116653;27;20138;-67
2023/01/24 04:24:37;;;;;;;28.70;6.85;;;12.70;43.40;;;;;;5114451;27;20072;-67
2023/01/24 04:27:03;;;;;;;;;;;12.70;43.10;;;;;;5111647;28;20070;-67
2023/01/24 04:29:29;;;;;;;32.97;6.97;;;12.70;43.20;;;;;;5113775;27;20122;-68
2023/01/24 04:31:56;;;;;;;;;;;12.70;42.80;;;;;;5115284;27;20073;-65
2023/01/24 04:34:22;;;;;;;26.33;5.22;;;12.70;42.30;;;;;;5111622;27;19958;-66
2023/01/24 04:36:48;;;;;;;;;;;12.70;41.80;;;;;;5112788;27;20069;-68
2023/01/24 04:39:15;;;;;;;20.88;4.68;;;12.70;41.90;;;;;;5113695;27;19957;-66
2023/01/24 04:41:41;;;;;;;;;;;12.70;42.00;;;;;;5113905;27;20087;-65
2023/01/24 04:44:07;;;;;;;25.00;3.80;;;12.60;42.30;;;;;;5114788;27;20096;-66
2023/01/24 04:46:33;;;;;;;;;;;12.50;42.50;;;;;;5113933;27;20068;-66
2023/01/24 04:49:00;;;;;;;43.80;5.70;;;12.40;42.70;;;;;;5110962;27;20370;-66
2023/01/24 04:51:26;;;;;;;;;;;12.40;43.30;;;;;;5115270;27;20076;-66
2023/01/24 04:53:52;;;;;;;41.35;5.30;;;12.30;43.50;;;;;;5112194;27;19988;-67
2023/01/24 04:56:18;;;;;;;;;;;12.20;42.80;;;;;;5111130;27;20068;-67
2023/01/24 04:58:44;;;;;;;28.70;6.90;;;12.20;42.90;;;;;;5116373;27;20122;-67
2023/01/24 05:01:11;;;;;;;;;;;12.20;43.70;;;;;;5116125;27;20125;-67
2023/01/24 05:03:37;;;;;;;35.45;12.07;;;12.10;43.10;;;;;;5113628;27;19953;-69
2023/01/24 05:06:03;;;;;;;;;;;12.10;43.20;;;;;;5110768;28;20518;-67
2023/01/24 05:08:29;;;;;;;34.85;8.70;;;12.10;42.80;;;;;;5113132;27;20068;-65
2023/01/24 05:10:55;;;;;;;;;;;12.10;42.40;;;;;;5110115;27;20079;-66
2023/01/24 05:13:22;;;;;;;39.30;7.75;;;12.10;42.40;;;;;;5121188;27;20473;-66
2023/01/24 05:15:48;;;;;;;;;;;12.00;42.90;;;;;;5113901;27;20142;-67
2023/01/24 05:18:15;;;;;;;36.67;7.13;;;12.00;42.30;;;;;;5109725;28;20005;-66
2023/01/24 05:20:41;;;;;;;30.60;6.22;;;12.00;42.70;;;;;;5109827;27;20152;-69
2023/01/24 05:23:10;;;;;;;23.65;6.22;;;11.90;42.90;;;;;;5107699;27;20094;-67
2023/01/24 05:25:38;;;;;;;32.20;5.07;;;11.90;42.70;;;;;;5098969;27;20073;-67
2023/01/24 05:28:07;;;;;;;34.95;5.32;;;11.90;42.30;;;;;;5108419;28;20081;-69
2023/01/24 05:30:33;;;;;;;27.90;4.32;;;11.80;42.90;;;;;;5111514;27;20162;-68
2023/01/24 05:32:59;;;;;;;;;;;11.80;42.50;;;;;;5106802;27;20074;-70
2023/01/24 05:35:26;;;;;;;35.25;4.55;;;11.70;42.10;;;;;;5088595;28;19962;-69
2023/01/24 05:37:53;;;;;;;;;;;11.70;41.80;;;;;;5108435;28;20596;-70
2023/01/24 05:40:19;;;;;;;;;;;11.70;41.60;;;;;;5109262;27;19963;-69
2023/01/24 05:42:46;;;;;;;25.35;3.83;;;11.70;41.90;;;;;;5112396;27;20017;-68
2023/01/24 05:45:12;;;;;;;;;;;11.70;41.10;;;;;;5108982;27;20108;-68
2023/01/24 05:47:38;;;;;;;19.92;3.75;;;11.60;41.30;;;;;;5105498;27;20350;-69
2023/01/24 05:50:04;;;;;;;;;;;11.60;41.10;;;;;;5108837;28;20062;-68
2023/01/24 05:52:30;;;;;;;18.88;3.33;;;11.70;40.40;;;;;;5105816;28;19954;-67
2023/01/24 05:54:56;;;;;;;;;;;11.70;40.40;;;;;;5107465;28;20098;-68
2023/01/24 05:57:24;;;;;;;33.35;5.22;;;11.70;40.40;;;;;;5108456;28;20012;-66
2023/01/24 05:59:51;;;;;;;22.40;3.75;;;11.80;40.30;;;;;;5099367;28;20090;-67
2023/01/24 06:02:18;;;;;;;;;;;11.80;40.80;;;;;;5102909;28;20089;-69
2023/01/24 06:04:44;;;;;;;13.90;3.30;;;11.70;41.00;;;;;;5102361;27;20042;-68
2023/01/24 06:07:10;;;;;;;;;;;11.70;40.60;;;;;;5112115;27;20128;-67
2023/01/24 06:09:38;;;;;;;25.48;3.60;;;11.70;40.40;;;;;;5108998;28;19958;-68
2023/01/24 06:12:05;;;;;;;19.15;2.67;;;11.70;40.90;;;;;;5106181;28;20401;-67
2023/01/24 06:14:31;;;;;;;15.57;3.08;;;11.60;40.80;;;;;;5105527;28;20424;-67
2023/01/24 06:16:57;;;;;;;;;;;11.60;40.80;;;;;;5106191;27;20104;-68
2023/01/24 06:19:25;;;;;;;22.05;3.55;;;11.60;41.30;;;;;;5109261;28;19986;-68
2023/01/24 06:22:03;;;;;;;17.98;3.95;;;11.60;41.20;;;;;;5089915;28;20090;-68
2023/01/24 06:24:30;;;;;;;16.17;3.30;;;11.50;41.40;;;;;;5069031;28;20061;-67
2023/01/24 06:26:57;;;;;;;23.20;3.65;;;11.50;41.80;;;;;;5106389;28;20161;-67
2023/01/24 06:29:23;;;;;;;27.90;4.32;;;11.50;41.60;;;;;;5111127;28;20070;-70
2023/01/24 06:32:18;;;;;;;38.38;5.53;;;11.50;41.60;;;;;;5114503;28;20066;-70
2023/01/24 06:35:00;;;;;;;44.40;6.18;;;11.50;41.00;;;;;;5106182;28;20081;-69
2023/01/24 06:37:34;;;;;;;43.60;7.40;;;11.40;40.80;;;;;;5102618;28;20074;-68
2023/01/24 06:40:01;;;;;;;37.72;9.65;;;11.30;40.90;;;;;;5114189;27;20068;-70
2023/01/24 06:42:27;;;;;;;37.97;6.68;;;11.30;40.80;;;;;;5110559;27;20088;-69
2023/01/24 06:44:54;;;;;;;24.60;6.50;;;11.30;40.70;;;;;;5111625;27;20091;-68
2023/01/24 06:47:20;;;;;;;;;;;11.30;40.50;;;;;;5109169;27;20090;-69
2023/01/24 06:49:46;;;;;;;27.25;4.47;;;11.30;40.40;;;;;;5110516;27;19958;-69
2023/01/24 06:52:14;;;;;;;;;;;11.40;40.40;;;;;;5111962;27;20096;-68
2023/01/24 06:54:40;;;;;;;24.52;5.18;;;11.40;40.30;;;;;;5111103;28;19976;-67
2023/01/24 06:57:07;;;;;;;;;;;11.40;40.80;;;;;;5113612;27;20761;-69
2023/01/24 06:59:33;;;;;;;30.10;5.05;;;11.30;40.40;;;;;;5121408;27;19965;-68
2023/01/24 07:01:59;;;;;;;;;;;11.30;40.40;;;;;;5118452;27;20541;-67
2023/01/24 07:04:26;;;;;;;20.50;4.70;;;11.40;40.50;;;;;;5119059;27;19975;-67
2023/01/24 07:06:52;;;;;;;;;;;11.30;41.10;;;;;;5113715;27;20069;-67
2023/01/24 07:09:20;;;;;;;20.85;4.97;;;11.30;41.00;;;;;;5094383;28;20480;-68
2023/01/24 07:11:52;;;;;;;20.42;4.25;;;11.30;40.80;;;;;;5116673;27;20070;-67
2023/01/24 07:14:22;;;;;;;24.73;4.43;;;11.30;40.80;;;;;;5112831;27;20070;-67
2023/01/24 07:16:52;;;;;;;17.52;3.97;;;11.30;40.90;;;;;;5114192;27;20458;-67
2023/01/24 07:19:25;;;;;;;20.20;4.15;;;11.30;41.00;;;;;;5114841;27;20070;-67
2023/01/24 07:21:53;;;;;;;20.42;4.72;;;11.30;41.20;;;;;;5096658;27;20090;-69
2023/01/24 07:24:29;;;;;;;23.83;4.93;;;11.30;41.20;;;;;;5113596;27;20088;-68
2023/01/24 07:26:58;;;;;;;19.33;4.43;;;11.30;41.40;;;;;;5113678;27;20070;-69
2023/01/24 07:29:25;;;;;;;23.92;4.00;;;11.30;41.70;;;;;;5093276;28;20070;-68
2023/01/24 07:31:52;;;;;;;;;;;11.20;42.10;;;;;;5113318;27;20082;-69
2023/01/24 07:34:18;;;;;;;;;;;11.10;42.00;;;;;;5111805;28;20457;-67
2023/01/24 07:36:46;;;;;;;29.90;4.22;;;11.00;42.40;;;;;;5111539;28;19957;-69
2023/01/24 07:39:15;;;;;;;18.48;3.65;;;10.90;43.50;;;;;;5111645;27;20094;-68
2023/01/24 07:41:43;;;;;;;23.58;3.88;;;10.90;42.50;;;;;;5111989;27;20098;-68
2023/01/24 07:44:11;;;;;;;12.32;3.45;;;10.90;42.90;;;;;;5094283;27;20069;-68
2023/01/24 07:46:39;;;;;;;14.57;3.25;;;10.90;42.30;;;;;;5115680;27;20488;-69
2023/01/24 07:49:06;;;;;;;11.30;2.70;;;10.90;42.10;;;;;;5112595;27;20092;-68
2023/01/24 07:51:32;;;;;;;;;;;11.00;41.90;;;;;;5113079;27;20146;-67
2023/01/24 07:53:58;;;;;;;10.00;1.98;;;11.00;41.80;;;;;;5114275;27;19953;-66
2023/01/24 07:56:24;;;;;;;;;;;11.00;41.90;;;;;;5112206;27;20117;-67
2023/01/24 07:58:51;;;;;;;17.88;2.63;;;11.10;41.60;;;;;;5117406;27;19954;-69
2023/01/24 08:01:21;;;;;;;;;;;11.00;42.00;;;;;;5119233;27;20176;-69
2023/01/24 08:03:47;;;;;;;13.38;2.38;;;11.00;42.70;;;;;;5115003;27;20001;-68
2023/01/24 08:06:14;;;;;;;16.75;2.60;;;11.00;42.50;;;;;;5117288;27;20097;-69
2023/01/24 08:08:40;;;;;;;;;;;11.00;41.50;;;;;;5116980;27;20438;-66
2023/01/24 08:11:06;;;;;;;17.50;3.00;;;11.10;41.30;;;;;;5103853;27;20335;-67
2023/01/24 08:13:33;;;;;;;14.75;2.85;;;11.00;41.60;;;;;;5115040;27;20097;-67
2023/01/24 08:16:00;;;;;;;15.07;2.60;;;11.00;41.60;;;;;;5115322;27;20144;-67
2023/01/24 08:18:27;;;;;;;14.32;2.30;;;11.00;41.40;;;;;;5093690;28;20070;-69
2023/01/24 08:20:57;;;;;;;14.65;2.53;;;11.00;41.30;;;;;;5092626;28;20116;-68
2023/01/24 08:23:23;;;;;;;24.33;3.22;;;11.10;41.70;;;;;;5109821;27;20118;-68
2023/01/24 08:25:50;;;;;;;18.65;2.70;;;11.10;42.00;;;;;;5092781;28;20608;-69
2023/01/24 08:28:16;;;;;;;13.18;2.58;;;11.10;41.80;;;;;;5117268;27;20063;-70
2023/01/24 08:30:44;;;;;;;12.32;2.42;;;11.10;42.10;;;;;;5109916;28;20068;-67
2023/01/24 08:33:17;;;;;;;13.40;2.10;;;11.00;42.10;;;;;;5111261;27;20093;-68
2023/01/24 08:35:44;;;;;;;20.23;2.78;;;11.00;42.60;;;;;;5113920;27;20062;-68
2023/01/24 08:38:11;;;;;;;12.20;2.53;;;10.90;42.70;;;;;;5111809;27;20161;-69
2023/01/24 08:40:38;;;;;;;21.88;1.98;;;10.80;43.50;;;;;;5115755;27;21673;-66
2023/01/24 08:43:05;;;;;;;10.63;1.70;;;10.80;43.20;;;;;;5115305;27;20087;-67
2023/01/24 08:45:31;;;;;;;22.00;1.90;;;10.60;43.20;;;;;;5113861;27;20069;-70
2023/01/24 08:47:58;;;;;;;15.23;2.15;;;10.60;43.20;;;;;;5112575;27;20091;-66
2023/01/24 08:50:25;;;;;;;9.80;1.85;;;10.70;43.50;;;;;;5091948;28;20538;-67
2023/01/24 08:52:55;;;;;;;26.38;9.90;;;10.60;43.30;;;;;;5115791;27;20169;-68
2023/01/24 08:55:22;;;;;;;24.88;8.70;;;10.70;43.90;;;;;;5115231;27;20447;-67
2023/01/24 08:57:49;;;;;;;13.30;1.60;;;10.70;44.10;;;;;;5113903;27;20423;-67
2023/01/24 09:00:19;;;;;;;13.88;1.40;;;10.60;44.10;;;;;;5116239;27;20085;-67
2023/01/24 09:02:45;;;;;;;15.13;2.15;;;10.60;44.40;;;;;;5114747;27;20578;-67
2023/01/24 09:05:11;;;;;;;;;;;10.50;44.60;;;;;;5075941;28;20075;-68
2023/01/24 09:07:40;;;;;;;11.27;2.30;;;10.50;44.90;;;;;;5114188;27;19992;-67
2023/01/24 09:10:07;;;;;;;9.88;1.58;;;10.40;45.40;;;;;;5110441;27;20097;-70
2023/01/24 09:12:37;;;;;;;17.08;2.17;;;10.40;46.50;;;;;;5121040;27;20157;-68
2023/01/24 09:15:04;;;;;;;8.60;2.00;;;10.20;46.90;;;;;;5113764;27;20064;-67
2023/01/24 09:17:32;;;;;;;11.88;1.70;;;10.00;47.60;;;;;;5109790;28;20062;-68
2023/01/24 09:19:58;;;;;;;20.52;2.50;;;10.00;47.90;;;;;;5115319;27;20062;-69
2023/01/24 09:22:25;;;;;;;6.03;1.77;;;10.00;47.90;;;;;;5116177;27;20085;-68
2023/01/24 09:24:51;;;;;;;;;;;9.90;48.00;;;;;;5113100;27;20070;-67
2023/01/24 09:27:20;;;;;;;11.80;2.30;;;9.80;47.70;;;;;;5115425;27;20009;-70
2023/01/24 09:29:46;;;;;;;16.33;2.40;;;9.70;47.50;;;;;;5091489;27;20257;-67
2023/01/24 09:32:13;;;;;;;12.32;3.38;;;9.60;47.70;;;;;;5112078;27;20073;-68
2023/01/24 09:34:46;;;;;;;;;;;9.70;47.60;;;;;;5116077;27;20066;-68
2023/01/24 09:37:17;;;;;;;21.70;4.15;;;9.60;47.10;;;;;;5115283;27;19955;-67
2023/01/24 09:39:44;;;;;;;18.33;5.03;;;9.70;47.30;;;;;;5110350;27;20115;-67
2023/01/24 09:42:22;;;;;;;16.52;5.10;;;9.60;47.40;;;;;;5114525;27;20075;-70
2023/01/24 09:45:22;;;;;;;17.65;4.93;;;9.60;47.20;;;;;;5110891;27;20070;-69
2023/01/24 09:48:06;;;;;;;21.05;5.43;;;9.60;47.90;;;;;;5078061;28;20099;-69
2023/01/24 09:50:59;;;;;;;24.92;5.57;;;9.40;47.40;;;;;;5109525;27;20094;-67
2023/01/24 09:53:41;;;;;;;18.13;5.50;;;9.40;47.70;;;;;;5113465;27;20461;-67
2023/01/24 09:56:26;;;;;;;20.75;5.20;;;9.40;48.40;;;;;;5112287;27;20099;-67
2023/01/24 09:59:17;;;;;;;16.50;5.28;;;9.30;49.00;;;;;;5111307;27;20559;-68
2023/01/24 10:01:44;;;;;;;23.45;5.05;;;9.20;49.30;;;;;;5114358;27;20096;-67
2023/01/24 10:04:22;;;;;;;25.50;5.50;;;9.10;48.80;;;;;;5111828;27;20078;-68
2023/01/24 10:06:57;;;;;;;32.03;5.85;;;9.10;48.10;;;;;;5114511;27;20062;-68
2023/01/24 10:09:43;;;;;;;31.45;5.55;;;9.20;48.60;;;;;;5108577;27;20112;-67
2023/01/24 10:12:16;;;;;;;24.77;5.85;;;9.20;48.90;;;;;;5110848;27;20062;-68
2023/01/24 10:15:00;;;;;;;22.75;6.03;;;9.10;49.20;;;;;;5112093;27;20073;-68
2023/01/24 10:17:48;;;;;;;22.25;6.15;;;9.20;49.20;;;;;;5108262;28;20119;-68
2023/01/24 10:20:14;;;;;;;29.80;6.05;;;9.20;48.90;;;;;;5108017;27;20075;-69
2023/01/24 10:22:40;;;;;;;;;;;9.30;49.70;;;;;;5113177;27;20090;-68
2023/01/24 10:25:45;;;;;;;21.17;5.88;;;9.20;49.80;;;;;;5111146;27;19959;-67
2023/01/24 10:28:21;;;;;;;30.67;5.80;;;9.20;50.00;;;;;;5118748;27;20066;-67
2023/01/24 10:31:14;;;;;;;26.67;5.85;;;9.10;49.70;;;;;;5108163;28;20069;-67
2023/01/24 10:34:08;;;;;;;30.63;6.20;;;9.10;49.40;;;;;;5091480;28;20140;-67
2023/01/24 10:37:05;;;;;;;21.75;6.22;;;8.80;49.90;;;;;;5107340;28;20054;-68
2023/01/24 10:39:31;;;;;;;24.10;5.82;;;8.80;50.20;;;;;;5106968;28;20062;-66
2023/01/24 10:41:58;;;;;;;;;;;8.80;50.30;;;;;;5108100;28;20528;-68
2023/01/24 10:44:35;;;;;;;29.98;6.30;;;8.70;50.60;;;;;;5111635;28;20114;-66
2023/01/24 10:47:36;;;;;;;27.63;6.07;;;8.70;50.80;;;;;;5089964;28;20078;-68
2023/01/24 10:50:11;;;;;;;25.02;5.63;;;8.80;51.00;;;;;;5090780;28;20065;-68
2023/01/24 10:52:38;;;;;;;17.08;5.65;;;8.80;51.50;;;;;;5115930;28;20078;-69
2023/01/24 10:55:29;;;;;;;21.65;5.68;;;8.90;51.70;;;;;;5109584;28;20085;-68
2023/01/24 10:57:56;;;;;;;20.65;5.75;;;8.90;51.60;;;;;;5110966;28;20074;-70
2023/01/24 11:00:29;;;;;;;;;;;8.80;51.70;;;;;;5111015;28;20070;-68
2023/01/24 11:02:58;;;;;;;28.15;6.22;;;8.80;52.20;;;;;;5112386;28;20537;-68
2023/01/24 11:05:34;;;;;;;20.85;5.95;;;8.80;52.20;;;;;;5109872;28;20113;-68
2023/01/24 11:08:01;;;;;;;18.45;6.45;;;8.70;52.40;;;;;;5089300;28;20072;-69
2023/01/24 11:10:41;;;;;;;16.70;5.93;;;8.70;52.50;;;;;;5110029;28;20079;-68
2023/01/24 11:13:39;;;;;;;23.20;5.97;;;8.70;52.70;;;;;;5092815;28;20069;-67
2023/01/24 11:16:18;;;;;;;19.90;5.47;;;8.60;53.10;;;;;;5110126;28;20099;-67
2023/01/24 11:19:02;;;;;;;31.05;6.55;;;8.40;53.80;;;;;;5110082;28;20067;-67
2023/01/24 11:21:30;;;;;;;24.30;5.47;;;8.30;52.90;;;;;;5113256;28;20546;-70
2023/01/24 11:24:05;;;;;;;21.52;5.78;;;8.40;52.90;;;;;;5094987;28;20073;-67
2023/01/24 11:26:37;;;;;;;24.50;5.63;;;8.30;52.90;;;;;;5110799;28;20068;-69
2023/01/24 11:29:25;;;;;;;19.17;4.93;;;8.50;52.70;;;;;;5120894;27;20066;-67
2023/01/24 11:31:55;;;;;;;21.45;5.07;;;8.50;52.40;;;;;;5093390;27;20079;-67
2023/01/24 11:34:45;;;;;;;15.40;4.32;;;8.50;52.30;;;;;;5117539;27;20070;-68
2023/01/24 11:37:48;;;;;;;19.25;4.97;;;8.60;51.80;;;;;;5114823;27;20078;-68
2023/01/24 11:40:43;;;;;;;19.98;3.95;;;8.60;51.60;;;;;;5111038;27;20408;-68
2023/01/24 11:43:27;;;;;;;25.83;4.13;;;8.60;51.70;;;;;;5114078;27;20515;-67
2023/01/24 11:46:22;;;;;;;18.92;4.35;;;8.60;52.10;;;;;;5112934;27;20107;-67
2023/01/24 11:48:56;;;;;;;37.03;4.65;;;8.40;52.50;;;;;;5115526;27;20109;-68
2023/01/24 11:51:53;;;;;;;24.27;5.43;;;8.30;53.10;;;;;;5112346;27;20135;-66
2023/01/24 11:54:30;;;;;;;30.30;4.47;;;8.30;52.70;;;;;;5117735;27;20062;-69
2023/01/24 11:57:25;;;;;;;18.67;4.07;;;8.30;52.90;;;;;;5113334;27;20082;-66
2023/01/24 12:00:04;;;;;;;15.00;3.53;;;8.40;54.10;;;;;;5116248;27;20074;-68
2023/01/24 12:02:40;;;;;;;18.23;4.88;;;8.40;53.60;;;;;;5122239;27;20095;-67
2023/01/24 12:05:24;;;;;;;15.82;4.50;;;8.30;53.50;;;;;;5116313;27;20072;-68
2023/01/24 12:07:50;;;;;;;17.33;5.05;;;8.30;53.90;;;;;;5113663;27;20063;-69
2023/01/24 12:10:55;;;;;;;21.73;5.68;;;8.20;54.30;;;;;;5092865;28;20099;-68
2023/01/24 12:13:42;;;;;;;20.15;4.88;;;8.30;53.90;;;;;;5011259;28;20181;-68
2023/01/24 12:16:20;;;;;;;19.55;5.32;;;8.30;53.90;;;;;;5063837;27;20471;-68
2023/01/24 12:19:09;;;;;;;22.38;5.03;;;8.30;53.70;;;;;;5118412;27;20078;-68
2023/01/24 12:21:35;;;;;;;22.13;5.00;;;8.30;54.50;;;;;;5111410;28;20087;-66
2023/01/24 12:24:01;;;;;;;;;;;8.30;54.40;;;;;;5112166;28;20412;-67
2023/01/24 12:26:36;;;;;;;17.55;5.80;;;8.20;53.90;;;;;;5113243;27;20000;-66
2023/01/24 12:29:41;;;;;;;17.80;5.25;;;8.20;54.30;;;;;;5114819;27;20547;-68
2023/01/24 12:32:28;;;;;;;20.02;5.13;;;8.10;54.40;;;;;;5093072;27;20548;-69
2023/01/24 12:35:40;;;;;;;19.95;5.20;;;8.10;54.40;;;;;;5111319;27;20114;-68
2023/01/24 12:38:34;;;;;;;18.48;5.03;;;8.00;55.00;;;;;;5114642;27;20462;-69
2023/01/24 12:41:30;;;;;;;24.95;5.57;;;8.00;55.00;;;;;;5112209;27;20083;-66
2023/01/24 12:44:03;;;;;;;23.88;5.22;;;7.90;55.70;;;;;;5111688;28;20079;-68
2023/01/24 12:46:38;;;;;;;23.20;5.72;;;7.90;55.30;;;;;;5091402;27;20574;-68
2023/01/24 12:49:07;;;;;;;35.05;5.72;;;7.80;55.40;;;;;;5111537;27;20106;-68
2023/01/24 12:52:06;;;;;;;22.02;5.63;;;7.90;55.80;;;;;;5108834;28;20086;-67
2023/01/24 12:54:48;;;;;;;22.42;5.72;;;7.90;55.60;;;;;;5109708;28;20124;-67
2023/01/24 12:57:36;;;;;;;22.35;5.30;;;7.90;55.20;;;;;;5115261;27;20079;-67
2023/01/24 13:00:04;;;;;;;24.45;5.35;;;7.90;55.30;;;;;;5110585;27;20067;-67
2023/01/24 13:02:41;;;;;;;24.58;5.85;;;7.70;55.40;;;;;;5111854;27;20090;-67
2023/01/24 13:05:20;;;;;;;19.92;5.03;;;7.80;55.90;;;;;;5115787;27;20064;-68
2023/01/24 13:07:58;;;;;;;24.95;6.28;;;7.80;55.80;;;;;;5110465;27;20431;-67
2023/01/24 13:11:01;;;;;;;42.13;6.22;;;7.80;56.10;;;;;;5115512;27;20102;-69
2023/01/24 13:13:44;;;;;;;20.92;5.57;;;7.70;55.90;;;;;;5107361;27;20081;-68
2023/01/24 13:16:26;;;;;;;20.75;5.95;;;7.70;56.10;;;;;;5093321;27;20133;-69
2023/01/24 13:19:19;;;;;;;25.52;5.68;;;7.60;56.30;;;;;;5110950;28;20152;-68
2023/01/24 13:21:52;;;;;;;25.67;6.45;;;7.40;57.50;;;;;;5089657;27;20098;-66
2023/01/24 13:24:34;;;;;;;29.42;6.05;;;7.50;57.50;;;;;;5106801;28;20126;-66
2023/01/24 13:27:12;;;;;;;37.17;6.63;;;7.50;57.20;;;;;;5112091;27;20092;-67
2023/01/24 13:29:41;;;;;;;32.10;7.40;;;7.50;57.30;;;;;;5112239;27;20087;-67
2023/01/24 13:32:18;;;;;;;30.63;7.10;;;7.40;57.60;;;;;;5091256;28;20110;-67
2023/01/24 13:34:47;;;;;;;25.85;6.22;;;7.50;57.80;;;;;;5112197;27;20155;-68
2023/01/24 13:37:28;;;;;;;27.92;6.53;;;7.40;58.00;;;;;;5111906;27;20128;-67
2023/01/24 13:40:15;;;;;;;23.63;6.55;;;7.50;58.30;;;;;;5110308;27;20419;-68
2023/01/24 13:42:43;;;;;;;25.52;6.65;;;7.50;58.40;;;;;;5110234;28;20085;-68
2023/01/24 13:45:36;;;;;;;23.58;7.13;;;7.30;58.20;;;;;;5112112;27;20079;-67
2023/01/24 13:48:28;;;;;;;36.50;8.85;;;7.30;58.30;;;;;;5109096;27;20165;-69
2023/01/24 13:51:34;;;;;;;49.60;13.95;;;7.40;58.50;;;;;;5097011;28;20076;-68
2023/01/24 13:54:15;;;;;;;46.20;16.33;;;7.40;58.00;;;;;;5016464;28;20096;-67
2023/01/24 13:57:10;;;;;;;64.50;19.17;;;7.40;58.00;;;;;;5014910;28;20070;-67